Flight Track Log - Related Links

Times and Time Zones

All times are in EDT time to prevent confusion due to time zone crossing. See the THY1078 flight status page for this flight to view local times or setup timezone preferences in your user account.

Time Position Orientation Groundspeed Altitude Reporting Facility
EDT Latitude Longitude Course Direction KTS MPH feet Rate Location/Type
Fri 03:00:00 PM 41.3566 22.5300 91° East  Level Estimated
Fri 03:01:00 PM 41.3519 22.6703 93° East  Level Estimated
Fri 03:02:00 PM 41.3470 22.8106 93° East  Level Estimated
Fri 03:03:00 PM 41.3420 22.9509 93° East  Level Estimated
Fri 03:04:00 PM 41.3368 23.0912 93° East  Level Estimated
Fri 03:05:00 PM 41.3314 23.2314 93° East  Level Estimated
Fri 03:06:00 PM 41.3259 23.3716 93° East  Level Estimated
Fri 03:07:00 PM 41.3201 23.5118 93° East  Level Estimated
Fri 03:08:00 PM 41.3143 23.6519 93° East  Level Estimated
Fri 03:09:00 PM 41.3082 23.7920 93° East  Level Estimated
Fri 03:10:00 PM 41.3020 23.9321 93° East  Level Estimated
Fri 03:11:00 PM 41.2956 24.0722 93° East  Level Estimated
Fri 03:12:00 PM 41.2890 24.2123 94° East  Level Estimated
Fri 03:13:00 PM 41.2823 24.3523 94° East  Level Estimated
Fri 03:14:00 PM 41.2753 24.4923 94° East  Level Estimated
Fri 03:15:00 PM 41.2683 24.6322 94° East  Level Estimated
Fri 03:16:00 PM 41.2610 24.7722 94° East  Level Estimated
Fri 03:17:00 PM 41.2536 24.9121 94° East  Level Estimated
Fri 03:18:00 PM 41.2460 25.0520 94° East  Level Estimated
Fri 03:19:00 PM 41.2383 25.1918 94° East  Level Estimated
Fri 03:20:00 PM 41.2303 25.3316 94° East  Level Estimated
Fri 03:21:00 PM 41.2222 25.4713 94° East  Level Estimated
Fri 03:22:00 PM 41.2140 25.6111 94° East  Level Estimated
Fri 03:23:00 PM 41.2056 25.7508 95° East  Level Estimated
Fri 03:24:00 PM 41.1969 25.8904 95° East  Level Estimated
Fri 03:25:00 PM 41.1882 26.0300 95° East  Level Estimated
Fri 03:26:00 PM 41.1792 26.1696 95° East  Level Estimated
Fri 03:27:00 PM 41.1701 26.3092 95° East  Level Estimated
Fri 03:28:00 PM 41.1609 26.4487 95° East  Level Estimated
Fri 03:29:00 PM 41.1514 26.5881 95° East  Level Estimated
Fri 03:30:00 PM 41.1418 26.7276 95° East  Level Estimated
Fri 03:31:00 PM 41.1320 26.8669 95° East  Level Estimated
Fri 03:32:00 PM 41.1221 27.0063 95° East  Level Estimated
Fri 03:33:00 PM 41.1120 27.1456 95° East  Level Estimated
Fri 03:34:00 PM 41.1017 27.2848 96° East  Level Estimated
Fri 03:35:00 PM 41.0912 27.4240 96° East  Level Estimated
Fri 03:36:00 PM 41.0806 27.5632 96° East  Level Estimated
Fri 03:37:00 PM 41.0698 27.7023 96° East  Level Estimated
Fri 03:38:00 PM 41.0589 27.8414 96° East  Level Estimated
Fri 03:39:00 PM 41.0478 27.9804 96° East  Level Estimated
Fri 03:40:00 PM 41.0365 28.1194 96° East  Level Estimated
Fri 03:41:00 PM 41.0250 28.2584 96° East  Level Estimated
Fri 03:42:00 PM 41.0134 28.3972 96° East  Level Estimated
Fri 03:43:00 PM 41.0016 28.5361 96° East  Level Estimated
Fri 03:44:00 PM 40.9897 28.6749 96° East  Level Estimated
Fri 03:45:00 PM 40.9776 28.8136 97° East  Level Estimated
Fri 03:46:00 PM 40.9769 28.8211 97° East  Level Estimated
Fri 03:47:00 PM 40.9769 28.8211 21° North  Level Estimated
Fri 03:48:00 PM 40.9769 28.8211 21° North  Level Estimated
Fri 03:49:00 PM 40.9769 28.8211 21° North  Level Estimated
Fri 03:50:00 PM 40.9769 28.8211 21° North  Level Estimated
Fri 03:51:00 PM 40.9769 28.8211 21° North  Level Estimated
Fri 03:52:00 PM 40.9769 28.8211 21° North  Level Estimated
Fri 03:53:00 PM 40.9769 28.8211 21° North  Level Estimated
Fri 03:54:00 PM 40.9769 28.8211 21° North  Level Estimated
Fri 03:55:00 PM 40.9769 28.8211 21° North  Level Estimated
Fri 03:56:00 PM 40.9769 28.8211 21° North  Level Estimated
Fri 03:57:00 PM 40.9769 28.8211 21° North  Level Estimated
Fri 03:58:00 PM 40.9769 28.8211 21° North  Level Estimated
Fri 03:59:00 PM 40.9769 28.8211 21° North  Level Estimated
Fri 04:00:00 PM 40.9769 28.8211 21° North  Level Estimated
Fri 04:01:00 PM 40.9769 28.8211 21° North  Level Estimated

Login

Don't have an account? Register now (free) for customized features, flight alerts, and more!